Time;durP1;ratioP1;P1;durP2;ratioP2;P2;SDS_P1;SDS_P2;PMS_P1;PMS_P2;Temp;Humidity;BMP_temperature;BMP_pressure;BME280_temperature;BME280_humidity;BME280_pressure;Samples;Min_cycle;Max_cycle;Signal;HPM_P1;HPM_P2
2022/06/21 00:00:37;;;;;;;2.25;1.00;;;11.90;99.90;;;;;;5068840;28;20044;-77
2022/06/21 00:03:08;;;;;;;3.47;1.45;;;11.90;99.90;;;;;;5064441;28;20044;-77
2022/06/21 00:05:38;;;;;;;4.03;1.13;;;11.90;99.90;;;;;;5083066;28;20036;-78
2022/06/21 00:08:06;;;;;;;2.97;1.10;;;11.90;99.90;;;;;;5069431;28;20037;-78
2022/06/21 00:10:34;;;;;;;2.25;0.90;;;11.90;99.90;;;;;;5070438;28;20131;-77
2022/06/21 00:13:34;;;;;;;3.90;1.20;;;11.90;99.90;;;;;;5053581;28;20055;-77
2022/06/21 00:16:10;;;;;;;3.92;1.30;;;11.80;99.90;;;;;;5062143;28;20507;-77
2022/06/21 00:18:37;;;;;;;3.78;1.10;;;11.80;99.90;;;;;;5062970;28;20056;-77
2022/06/21 00:21:09;;;;;;;2.83;0.90;;;11.80;99.90;;;;;;5069323;28;20083;-77
2022/06/21 00:23:35;;;;;;;3.20;0.85;;;11.70;99.90;;;;;;5066963;28;20102;-78
2022/06/21 00:26:00;;;;;;;3.05;1.00;;;11.80;99.90;;;;;;5060879;28;20048;-78
2022/06/21 00:28:26;;;;;;;4.30;1.10;;;11.60;99.90;;;;;;5050782;28;20040;-78
2022/06/21 00:30:53;;;;;;;;;;;11.60;99.90;;;;;;5051315;28;20582;-78
2022/06/21 00:33:24;;;;;;;2.65;1.00;;;11.50;99.90;;;;;;5062961;28;19920;-77
2022/06/21 00:35:53;;;;;;;0.70;0.47;;;11.40;99.90;;;;;;5069074;28;20052;-77
2022/06/21 00:38:30;;;;;;;1.52;0.60;;;11.40;99.90;;;;;;5069810;28;20487;-78
2022/06/21 00:40:59;;;;;;;0.95;0.50;;;11.40;99.90;;;;;;5078614;28;20144;-77
2022/06/21 00:43:31;;;;;;;2.42;0.75;;;11.40;99.90;;;;;;5062086;28;20090;-78
2022/06/21 00:45:57;;;;;;;0.88;0.63;;;11.30;99.90;;;;;;5065798;28;20127;-77
2022/06/21 00:48:34;;;;;;;2.10;0.73;;;11.30;99.90;;;;;;5050386;28;20136;-78
2022/06/21 00:51:30;;;;;;;0.88;0.47;;;11.10;99.90;;;;;;5068077;28;20056;-78
2022/06/21 00:54:01;;;;;;;1.73;0.52;;;11.10;99.90;;;;;;5062128;28;20530;-78
2022/06/21 00:56:56;;;;;;;2.42;0.80;;;10.90;99.90;;;;;;5041474;28;20047;-78
2022/06/21 00:59:27;;;;;;;1.38;0.52;;;11.00;99.90;;;;;;5033678;28;20137;-78
2022/06/21 01:02:06;;;;;;;0.85;0.60;;;10.90;99.90;;;;;;5070886;28;20086;-78
2022/06/21 01:04:42;;;;;;;1.85;0.60;;;10.80;99.90;;;;;;5069030;28;20126;-78
2022/06/21 01:07:11;;;;;;;1.05;0.40;;;10.70;99.90;;;;;;5053700;28;20036;-78
2022/06/21 01:09:46;;;;;;;1.58;0.60;;;10.60;99.90;;;;;;5069764;28;20075;-78
2022/06/21 01:12:27;;;;;;;1.00;0.47;;;10.60;99.90;;;;;;5068719;28;20106;-78
2022/06/21 01:15:03;;;;;;;0.40;0.35;;;10.60;99.90;;;;;;5069861;28;20052;-78
2022/06/21 01:17:30;;;;;;;0.70;0.40;;;10.50;99.90;;;;;;5058446;28;20113;-78
2022/06/21 01:20:03;;;;;;;1.08;0.45;;;10.60;99.90;;;;;;5071819;28;20676;-78
2022/06/21 01:22:54;;;;;;;0.50;0.30;;;10.40;99.90;;;;;;5061784;28;20044;-79
2022/06/21 01:25:51;;;;;;;1.25;0.43;;;10.40;99.90;;;;;;5086813;28;20079;-78
2022/06/21 01:28:18;;;;;;;0.77;0.30;;;10.50;99.90;;;;;;5070816;28;20132;-78
2022/06/21 01:30:48;;;;;;;0.60;0.50;;;10.40;99.90;;;;;;5081890;28;20037;-78
2022/06/21 01:33:17;;;;;;;0.65;0.47;;;10.40;99.90;;;;;;5050545;28;20561;-77
2022/06/21 01:35:48;;;;;;;1.40;0.63;;;10.40;99.90;;;;;;5053985;28;20056;-78
2022/06/21 01:38:23;;;;;;;0.63;0.40;;;10.40;99.90;;;;;;5070702;28;20510;-78
2022/06/21 01:40:52;;;;;;;1.80;0.50;;;10.30;99.90;;;;;;5053096;28;20037;-78
2022/06/21 01:43:26;;;;;;;0.82;0.43;;;10.20;99.90;;;;;;5070138;28;20044;-78
2022/06/21 01:45:56;;;;;;;0.82;0.50;;;10.20;99.90;;;;;;5070122;28;20041;-79
2022/06/21 01:48:31;;;;;;;1.40;0.60;;;10.20;99.90;;;;;;5087172;28;20608;-78
2022/06/21 01:51:06;;;;;;;1.38;0.60;;;10.10;99.90;;;;;;5067013;28;20080;-78
2022/06/21 01:53:33;;;;;;;1.50;0.50;;;10.20;99.90;;;;;;5068569;28;20068;-78
2022/06/21 01:56:04;;;;;;;0.60;0.43;;;10.10;99.90;;;;;;5066115;28;20056;-78
2022/06/21 01:58:32;;;;;;;1.20;0.40;;;10.00;99.90;;;;;;5057940;28;20076;-78
2022/06/21 02:01:20;;;;;;;1.20;0.50;;;10.00;99.90;;;;;;5050077;28;20040;-78
2022/06/21 02:03:50;;;;;;;0.52;0.30;;;10.00;99.90;;;;;;5066019;28;20049;-78
2022/06/21 02:06:17;;;;;;;2.08;0.68;;;10.00;99.90;;;;;;5064537;28;20048;-77
2022/06/21 02:08:47;;;;;;;1.35;0.50;;;10.00;99.90;;;;;;5067431;28;20050;-78
2022/06/21 02:11:29;;;;;;;0.50;0.43;;;10.00;99.90;;;;;;5068524;28;20132;-78
2022/06/21 02:16:47;;;;;;;0.98;0.43;;;10.10;99.90;;;;;;5069082;28;20529;-79
2022/06/21 02:19:26;;;;;;;0.40;0.40;;;10.10;99.90;;;;;;5069191;28;20052;-78
2022/06/21 02:21:51;;;;;;;0.50;0.40;;;10.20;99.90;;;;;;5068483;28;20052;-78
2022/06/21 02:24:17;;;;;;;0.88;0.55;;;10.10;99.90;;;;;;5068480;28;20067;-78
2022/06/21 02:26:44;;;;;;;0.60;0.40;;;10.20;99.90;;;;;;5068342;28;20140;-78
2022/06/21 02:29:13;;;;;;;0.65;0.43;;;10.20;99.90;;;;;;5060955;28;20037;-78
2022/06/21 02:31:39;;;;;;;0.30;0.30;;;10.20;99.90;;;;;;5067651;28;20052;-79
2022/06/21 02:34:09;;;;;;;;;;;10.40;99.90;;;;;;5069234;28;20466;-79
2022/06/21 02:36:44;;;;;;;0.30;0.30;;;10.30;99.90;;;;;;5050600;28;19916;-79
2022/06/21 02:39:18;;;;;;;0.98;0.40;;;10.40;99.90;;;;;;5063828;28;20036;-79
2022/06/21 02:41:50;;;;;;;0.75;0.30;;;10.40;99.90;;;;;;5067048;28;20106;-78
2022/06/21 02:44:28;;;;;;;0.63;0.50;;;10.40;99.90;;;;;;5077432;28;20076;-78
2022/06/21 02:46:57;;;;;;;0.60;0.40;;;10.40;99.90;;;;;;5044610;28;20116;-78
2022/06/21 02:49:32;;;;;;;0.60;0.40;;;10.40;99.90;;;;;;5050886;28;20070;-78
2022/06/21 02:52:11;;;;;;;0.63;0.30;;;10.40;99.90;;;;;;5068678;28;20048;-79
2022/06/21 02:54:54;;;;;;;1.30;0.30;;;10.30;99.90;;;;;;5080472;28;20037;-79
2022/06/21 02:57:32;;;;;;;1.38;0.30;;;10.30;99.90;;;;;;5074277;28;20033;-79
2022/06/21 02:59:59;;;;;;;0.57;0.30;;;10.30;99.90;;;;;;5065435;28;20044;-79
2022/06/21 03:02:28;;;;;;;0.88;0.55;;;10.30;99.90;;;;;;5060556;28;20166;-78
2022/06/21 03:05:01;;;;;;;0.55;0.40;;;10.30;99.90;;;;;;5067507;28;20108;-79
2022/06/21 03:07:39;;;;;;;1.00;0.40;;;10.30;99.90;;;;;;5051015;28;20067;-78
2022/06/21 03:10:18;;;;;;;0.85;0.40;;;10.20;99.90;;;;;;5067693;28;20124;-79
2022/06/21 03:12:47;;;;;;;0.22;0.22;;;10.30;99.90;;;;;;5070163;28;20114;-78
2022/06/21 03:15:13;;;;;;;0.63;0.38;;;10.30;99.90;;;;;;5071609;28;20115;-78
2022/06/21 03:17:50;;;;;;;0.30;0.20;;;10.30;99.90;;;;;;5070841;28;20040;-78
2022/06/21 03:20:19;;;;;;;0.70;0.38;;;10.30;99.90;;;;;;5078097;28;20052;-78
2022/06/21 03:22:46;;;;;;;0.52;0.30;;;10.40;99.90;;;;;;5074342;28;20037;-78
2022/06/21 03:25:23;;;;;;;0.38;0.30;;;10.40;99.90;;;;;;5076133;28;20400;-78
2022/06/21 03:27:53;;;;;;;0.57;0.30;;;10.40;99.90;;;;;;5056743;28;20387;-78
2022/06/21 03:30:23;;;;;;;0.55;0.28;;;10.40;99.90;;;;;;5074144;28;20085;-78
2022/06/21 03:32:51;;;;;;;0.98;0.40;;;10.40;99.90;;;;;;5073171;28;20060;-78
2022/06/21 03:35:17;;;;;;;0.65;0.35;;;10.50;99.90;;;;;;5066213;28;20400;-78
2022/06/21 03:37:44;;;;;;;0.75;0.32;;;10.50;99.90;;;;;;5072712;28;20040;-78
2022/06/21 03:43:37;;;;;;;0.60;0.30;;;10.50;99.90;;;;;;5065134;28;20088;-78
2022/06/21 03:46:09;;;;;;;0.50;0.30;;;10.50;99.90;;;;;;5011378;28;20099;-79
2022/06/21 03:48:41;;;;;;;0.98;0.40;;;10.50;99.90;;;;;;5070419;28;20396;-79
2022/06/21 03:51:15;;;;;;;0.50;0.30;;;10.60;99.90;;;;;;5073613;28;20045;-78
2022/06/21 03:53:53;;;;;;;1.02;0.47;;;10.60;99.90;;;;;;5069926;28;20040;-78
2022/06/21 03:56:34;;;;;;;0.30;0.30;;;10.70;99.90;;;;;;5064836;28;20048;-79
2022/06/21 03:59:22;;;;;;;0.70;0.30;;;10.80;99.90;;;;;;5068076;28;20079;-78
2022/06/21 04:01:55;;;;;;;0.30;0.30;;;10.80;99.90;;;;;;5067537;28;20040;-78
2022/06/21 04:04:25;;;;;;;0.38;0.30;;;10.80;99.90;;;;;;5069015;28;20072;-79
2022/06/21 04:07:18;;;;;;;0.22;0.20;;;10.90;99.90;;;;;;5073505;28;20087;-79
2022/06/21 04:09:48;;;;;;;0.75;0.40;;;10.90;99.90;;;;;;5064788;28;20040;-78
2022/06/21 04:12:25;;;;;;;0.20;0.20;;;11.00;99.90;;;;;;5071275;28;20459;-78
2022/06/21 04:15:01;;;;;;;0.90;0.30;;;11.00;99.90;;;;;;5069180;28;20055;-78
2022/06/21 04:17:36;;;;;;;1.10;0.28;;;11.00;99.90;;;;;;5071110;28;20041;-78
2022/06/21 04:20:27;;;;;;;0.98;0.30;;;11.00;99.90;;;;;;5059629;28;20065;-78
2022/06/21 04:22:58;;;;;;;0.47;0.30;;;11.10;99.90;;;;;;5069806;28;20094;-78
2022/06/21 04:25:37;;;;;;;0.20;0.20;;;11.10;99.90;;;;;;5052156;28;20040;-79
2022/06/21 04:28:26;;;;;;;1.20;0.45;;;11.20;99.90;;;;;;5071205;28;20128;-78
2022/06/21 04:31:12;;;;;;;0.75;0.35;;;11.20;99.90;;;;;;5082938;28;20040;-78
2022/06/21 04:33:52;;;;;;;0.30;0.30;;;11.20;99.90;;;;;;5066296;28;20044;-78
2022/06/21 04:36:24;;;;;;;0.57;0.30;;;11.10;99.90;;;;;;5059187;28;20091;-78
2022/06/21 04:39:00;;;;;;;0.85;0.22;;;11.20;99.90;;;;;;5063467;28;20303;-78
2022/06/21 04:41:38;;;;;;;0.57;0.30;;;11.20;99.90;;;;;;5071680;28;20093;-78
2022/06/21 04:44:41;;;;;;;0.77;0.30;;;11.30;99.90;;;;;;5050909;28;20802;-78
2022/06/21 04:47:29;;;;;;;0.30;0.30;;;11.20;99.90;;;;;;5065895;28;20033;-78
2022/06/21 04:50:14;;;;;;;0.43;0.30;;;11.20;99.90;;;;;;5062736;28;20041;-78
2022/06/21 04:53:12;;;;;;;0.40;0.30;;;11.20;99.90;;;;;;5052434;28;20420;-78
2022/06/21 04:56:00;;;;;;;0.50;0.40;;;11.20;99.90;;;;;;5067204;28;20383;-77
2022/06/21 04:58:26;;;;;;;0.45;0.30;;;11.30;99.90;;;;;;5068599;28;20040;-78
2022/06/21 05:00:53;;;;;;;0.50;0.40;;;11.30;99.90;;;;;;5068678;28;20055;-76
2022/06/21 05:03:48;;;;;;;0.95;0.40;;;11.30;99.90;;;;;;5022310;28;20115;-78
2022/06/21 05:06:14;;;;;;;0.30;0.20;;;11.30;99.90;;;;;;5026854;28;20127;-79
2022/06/21 05:08:41;;;;;;;0.60;0.38;;;11.40;99.90;;;;;;5055631;28;20170;-78
2022/06/21 05:11:11;;;;;;;0.60;0.40;;;11.40;99.90;;;;;;5055612;28;20044;-78
2022/06/21 05:13:42;;;;;;;0.28;0.28;;;11.60;99.90;;;;;;5069898;28;20036;-80
2022/06/21 05:16:18;;;;;;;0.20;0.20;;;11.60;99.90;;;;;;5076353;28;20483;-80
2022/06/21 05:18:48;;;;;;;1.05;0.40;;;11.80;99.90;;;;;;5015304;28;1114691;-79
2022/06/21 05:21:20;;;;;;;0.47;0.30;;;11.80;99.90;;;;;;5058235;28;20043;-78
2022/06/21 05:23:47;;;;;;;0.77;0.50;;;11.80;99.90;;;;;;5057691;28;20032;-77
2022/06/21 05:26:19;;;;;;;0.30;0.30;;;11.80;99.90;;;;;;5072890;28;20468;-78
2022/06/21 05:28:51;;;;;;;1.13;0.60;;;11.90;99.90;;;;;;5068276;28;20515;-77
2022/06/21 05:31:39;;;;;;;0.40;0.40;;;12.00;99.90;;;;;;5058554;28;21359;-77
2022/06/21 05:34:19;;;;;;;0.55;0.20;;;12.00;99.90;;;;;;5056996;28;20124;-77
2022/06/21 05:37:02;;;;;;;0.60;0.32;;;12.00;99.90;;;;;;5043649;28;20086;-77
2022/06/21 05:39:42;;;;;;;0.52;0.40;;;12.00;99.90;;;;;;5045704;28;20407;-77
2022/06/21 05:42:13;;;;;;;0.20;0.20;;;12.00;99.90;;;;;;5048291;28;20036;-77
2022/06/21 05:44:49;;;;;;;0.20;0.20;;;12.20;99.90;;;;;;5061045;28;20136;-77
2022/06/21 05:47:21;;;;;;;1.08;0.50;;;12.20;99.90;;;;;;5065673;28;20388;-78
2022/06/21 05:49:48;;;;;;;2.20;0.60;;;12.30;99.90;;;;;;5068271;28;20036;-77
2022/06/21 05:52:20;;;;;;;0.50;0.38;;;12.50;99.90;;;;;;5052304;28;20106;-70
2022/06/21 05:54:56;;;;;;;0.47;0.47;;;12.50;99.90;;;;;;5052566;28;20504;-70
2022/06/21 05:57:25;;;;;;;;;;;12.70;99.90;;;;;;5055846;28;20044;-70
2022/06/21 05:59:50;;;;;;;0.70;0.52;;;12.70;99.90;;;;;;5033593;28;19917;-70
2022/06/21 06:02:36;;;;;;;0.40;0.40;;;12.90;99.90;;;;;;5057955;28;20052;-70
2022/06/21 06:05:12;;;;;;;1.38;0.60;;;13.00;99.90;;;;;;5055308;28;20059;-70
2022/06/21 06:07:45;;;;;;;1.48;0.90;;;13.10;99.90;;;;;;5056842;28;20033;-70
2022/06/21 06:10:12;;;;;;;1.40;0.70;;;13.30;99.90;;;;;;5055579;28;20059;-70
2022/06/21 06:12:45;;;;;;;1.85;1.00;;;13.40;99.90;;;;;;5063936;28;20475;-70
2022/06/21 06:15:19;;;;;;;0.80;0.60;;;13.60;99.90;;;;;;5078385;28;20040;-70
2022/06/21 06:17:48;;;;;;;1.55;0.80;;;13.90;99.90;;;;;;5067791;28;20072;-70
2022/06/21 06:20:36;;;;;;;1.02;0.70;;;14.30;99.90;;;;;;5064753;28;20373;-70
2022/06/21 06:23:18;;;;;;;3.20;1.50;;;14.50;99.90;;;;;;5069625;28;20040;-70
2022/06/21 06:25:49;;;;;;;3.75;1.30;;;14.50;99.90;;;;;;5068115;28;20136;-70
2022/06/21 06:28:20;;;;;;;2.30;1.10;;;14.80;99.90;;;;;;5064699;28;20115;-70
2022/06/21 06:31:10;;;;;;;2.85;1.08;;;14.80;99.90;;;;;;5064804;28;20530;-71
2022/06/21 06:34:01;;;;;;;1.67;1.08;;;14.80;99.90;;;;;;5067221;28;20494;-71
2022/06/21 06:36:33;;;;;;;1.50;1.08;;;14.80;99.90;;;;;;5054460;28;20421;-70
2022/06/21 06:39:00;;;;;;;2.58;0.88;;;14.80;99.90;;;;;;5074251;28;20353;-70
2022/06/21 06:41:37;;;;;;;1.30;0.68;;;14.80;99.90;;;;;;5050005;28;20095;-70
2022/06/21 06:44:04;;;;;;;;;;;14.90;99.90;;;;;;5065521;28;20107;-70
2022/06/21 06:46:34;;;;;;;1.33;0.80;;;14.90;99.90;;;;;;5059126;28;19923;-69
2022/06/21 06:49:22;;;;;;;1.00;0.70;;;15.20;99.90;;;;;;5075355;28;20066;-69
2022/06/21 06:52:11;;;;;;;1.75;0.80;;;15.20;99.90;;;;;;5023792;28;20406;-70
2022/06/21 06:55:11;;;;;;;1.42;0.70;;;15.60;99.90;;;;;;5048994;28;20448;-70
2022/06/21 06:57:46;;;;;;;0.90;0.70;;;15.80;99.90;;;;;;5038748;28;20090;-70
2022/06/21 07:00:14;;;;;;;2.47;0.82;;;15.90;99.90;;;;;;5056969;28;20044;-71
2022/06/21 07:02:52;;;;;;;3.40;1.23;;;15.80;99.90;;;;;;5067397;28;20128;-71
2022/06/21 07:05:38;;;;;;;2.45;1.15;;;15.60;99.90;;;;;;5079973;28;20523;-71
2022/06/21 07:08:27;;;;;;;2.80;1.20;;;15.50;99.90;;;;;;5063477;28;20608;-71
2022/06/21 07:10:57;;;;;;;2.50;0.90;;;15.30;99.90;;;;;;5056942;28;20044;-71
2022/06/21 07:13:24;;;;;;;1.73;1.05;;;15.20;99.90;;;;;;5066829;28;20080;-71
2022/06/21 07:15:54;;;;;;;1.65;0.90;;;15.20;99.90;;;;;;5071676;28;20536;-71
2022/06/21 07:18:50;;;;;;;1.60;0.80;;;15.40;99.90;;;;;;5036249;28;20179;-71
2022/06/21 07:21:18;;;;;;;1.75;0.90;;;15.80;99.90;;;;;;5042041;28;20492;-71
2022/06/21 07:23:45;;;;;;;1.05;0.80;;;15.80;99.90;;;;;;5046977;28;20539;-71
2022/06/21 07:26:14;;;;;;;;;;;16.20;99.90;;;;;;5064770;28;20071;-71
2022/06/21 07:29:02;;;;;;;2.50;1.08;;;16.20;99.90;;;;;;5055820;28;19960;-71
2022/06/21 07:31:31;;;;;;;2.03;0.90;;;16.10;99.90;;;;;;5057640;28;20052;-71
2022/06/21 07:34:23;;;;;;;1.85;1.00;;;16.30;99.90;;;;;;5067645;28;20081;-70
2022/06/21 07:36:56;;;;;;;2.10;0.90;;;16.30;99.90;;;;;;5055068;28;20148;-71
2022/06/21 07:39:35;;;;;;;4.63;1.30;;;16.40;99.90;;;;;;5053599;28;20075;-72
2022/06/21 07:42:22;;;;;;;3.50;1.40;;;16.30;99.90;;;;;;5067930;28;20533;-71
2022/06/21 07:44:58;;;;;;;2.85;1.10;;;16.20;99.90;;;;;;5054330;28;20461;-71
2022/06/21 07:47:32;;;;;;;5.47;2.03;;;16.40;99.90;;;;;;5079970;28;20028;-72
2022/06/21 07:50:09;;;;;;;4.63;1.85;;;16.20;99.90;;;;;;5078732;28;20051;-71
2022/06/21 07:52:40;;;;;;;1.92;0.93;;;16.30;99.90;;;;;;5069578;28;20040;-71
2022/06/21 07:55:21;;;;;;;3.05;1.27;;;16.30;99.90;;;;;;5071018;28;20041;-72
2022/06/21 07:57:56;;;;;;;4.07;1.45;;;16.50;99.90;;;;;;5050213;28;20060;-72
2022/06/21 08:00:26;;;;;;;3.75;1.52;;;16.40;99.90;;;;;;5078641;28;20123;-72
2022/06/21 08:09:02;;;;;;;4.10;1.40;;;16.30;99.90;;;;;;5070763;28;20055;-79
2022/06/21 08:11:38;;;;;;;1.60;0.80;;;16.10;99.90;;;;;;5060322;28;20044;-80
2022/06/21 08:14:06;;;;;;;2.00;0.60;;;16.00;99.90;;;;;;5074397;28;20050;-79
2022/06/21 08:16:37;;;;;;;1.65;0.80;;;16.00;99.90;;;;;;5065172;28;20536;-79
2022/06/21 08:19:30;;;;;;;1.85;0.82;;;16.50;99.90;;;;;;5068820;28;20069;-79
2022/06/21 08:22:11;;;;;;;1.65;0.80;;;17.10;99.90;;;;;;5026183;28;20049;-78
2022/06/21 08:24:46;;;;;;;1.88;0.90;;;17.70;99.90;;;;;;5068643;28;20045;-78
2022/06/21 08:27:11;;;;;;;1.65;0.77;;;18.30;99.90;;;;;;5055319;28;20044;-79
2022/06/21 08:29:41;;;;;;;;;;;18.80;99.90;;;;;;5071871;28;20511;-78
2022/06/21 08:32:13;;;;;;;1.88;1.00;;;18.90;99.90;;;;;;5044180;28;20019;-79
2022/06/21 08:34:47;;;;;;;2.22;1.10;;;18.30;99.90;;;;;;5080647;28;20049;-78
2022/06/21 08:37:21;;;;;;;6.30;1.60;;;18.40;99.90;;;;;;5075450;28;20106;-78
2022/06/21 08:40:34;;;;;;;3.47;1.35;;;18.00;99.90;;;;;;5054899;28;20036;-78
2022/06/21 08:43:30;;;;;;;2.60;1.00;;;18.30;99.90;;;;;;4981611;28;20050;-78
2022/06/21 08:46:08;;;;;;;2.75;1.25;;;18.60;99.90;;;;;;5069899;28;20049;-79
2022/06/21 08:49:35;;;;;;;3.78;1.60;;;19.00;99.90;;;;;;5058020;28;20048;-78
2022/06/21 08:52:23;;;;;;;2.08;1.23;;;18.40;99.90;;;;;;4988404;28;20054;-79
2022/06/21 08:55:01;;;;;;;2.20;1.10;;;18.00;99.90;;;;;;4977793;28;20097;-79
2022/06/21 08:57:38;;;;;;;4.97;1.70;;;18.10;99.90;;;;;;5041409;28;20079;-78
2022/06/21 09:00:11;;;;;;;2.70;1.20;;;17.80;99.90;;;;;;5062635;28;20077;-78
2022/06/21 09:03:08;;;;;;;2.30;0.95;;;17.80;99.90;;;;;;5080112;28;20040;-79
2022/06/21 09:05:56;;;;;;;2.22;1.13;;;18.10;99.90;;;;;;5075495;28;20040;-78
2022/06/21 09:08:56;;;;;;;2.28;1.20;;;18.30;99.90;;;;;;5072416;28;20044;-78
2022/06/21 09:11:32;;;;;;;3.25;1.00;;;18.10;99.90;;;;;;5067153;28;20097;-79
2022/06/21 09:14:07;;;;;;;0.80;0.80;;;18.40;99.90;;;;;;5070594;28;20048;-78
2022/06/21 09:16:44;;;;;;;1.58;0.60;;;18.80;99.90;;;;;;5064905;28;20045;-78
2022/06/21 09:19:26;;;;;;;2.38;0.80;;;19.20;99.90;;;;;;5053977;28;20059;-78
2022/06/21 09:22:24;;;;;;;1.83;0.90;;;19.50;99.90;;;;;;5070449;28;20079;-78
2022/06/21 09:25:14;;;;;;;1.58;0.70;;;19.70;99.90;;;;;;5015074;28;20044;-79
2022/06/21 09:27:48;;;;;;;1.73;0.60;;;19.90;99.50;;;;;;5073546;28;20062;-78
2022/06/21 09:30:25;;;;;;;1.25;0.70;;;20.10;98.50;;;;;;5076185;28;20046;-78
2022/06/21 09:33:14;;;;;;;1.90;0.60;;;20.10;99.30;;;;;;5078334;28;20500;-78
2022/06/21 09:36:18;;;;;;;2.15;0.80;;;19.70;99.20;;;;;;5059063;28;20036;-78
2022/06/21 09:38:47;;;;;;;1.30;0.80;;;19.10;99.90;;;;;;5067196;28;20040;-79
2022/06/21 09:41:34;;;;;;;2.35;0.70;;;19.30;99.90;;;;;;5046523;28;20086;-78
2022/06/21 09:44:12;;;;;;;2.47;0.95;;;19.60;99.90;;;;;;5077431;28;20102;-78
2022/06/21 09:46:44;;;;;;;1.63;0.75;;;19.90;99.10;;;;;;5069663;28;20475;-77
2022/06/21 09:49:42;;;;;;;1.65;0.88;;;20.10;99.00;;;;;;5063725;28;20303;-79
2022/06/21 09:52:30;;;;;;;1.60;0.68;;;20.10;98.60;;;;;;5056121;28;20056;-78
2022/06/21 09:55:11;;;;;;;1.80;0.73;;;20.50;98.40;;;;;;5055260;28;20044;-72
2022/06/21 09:58:15;;;;;;;2.03;0.80;;;20.70;98.90;;;;;;5062660;28;20039;-72
2022/06/21 10:01:17;;;;;;;1.95;0.90;;;20.50;97.90;;;;;;5051797;28;20048;-72
2022/06/21 10:04:23;;;;;;;1.25;0.70;;;20.50;97.70;;;;;;5063017;28;20051;-72
2022/06/21 10:07:13;;;;;;;1.35;0.60;;;20.80;96.60;;;;;;5065757;28;20068;-78
2022/06/21 10:10:17;;;;;;;2.00;0.95;;;21.00;96.20;;;;;;5068360;28;20097;-78
2022/06/21 10:13:16;;;;;;;1.23;0.77;;;21.10;96.20;;;;;;5065899;28;20515;-77
2022/06/21 10:16:40;;;;;;;2.67;0.80;;;21.30;96.30;;;;;;5061447;28;20048;-76
2022/06/21 10:19:35;;;;;;;2.42;1.02;;;20.90;95.20;;;;;;5018560;28;20474;-71
2022/06/21 10:22:19;;;;;;;2.17;0.82;;;20.30;95.80;;;;;;5060704;28;20063;-71
2022/06/21 10:25:21;;;;;;;1.20;0.70;;;20.60;96.70;;;;;;5056008;28;20037;-71
2022/06/21 10:28:19;;;;;;;2.55;0.93;;;20.50;97.00;;;;;;5058563;28;20039;-71
2022/06/21 10:31:06;;;;;;;1.00;0.63;;;20.80;96.50;;;;;;5057470;28;20748;-79
2022/06/21 10:34:22;;;;;;;3.25;0.80;;;21.20;96.50;;;;;;5072482;28;20079;-78
2022/06/21 10:37:01;;;;;;;2.33;0.80;;;21.20;95.30;;;;;;5018051;28;20438;-78
2022/06/21 10:39:54;;;;;;;2.30;0.70;;;21.40;94.80;;;;;;5063843;28;20136;-78
2022/06/21 10:42:47;;;;;;;0.75;0.40;;;21.30;94.80;;;;;;5051046;28;20059;-78
2022/06/21 10:45:38;;;;;;;0.63;0.40;;;21.70;94.30;;;;;;5066041;28;20048;-77
2022/06/21 10:48:32;;;;;;;0.75;0.43;;;21.40;93.60;;;;;;5048735;28;20040;-77
2022/06/21 10:51:31;;;;;;;0.90;0.30;;;21.40;94.60;;;;;;5083070;28;20103;-77
2022/06/21 10:54:27;;;;;;;0.88;0.32;;;22.00;94.30;;;;;;5068125;28;20438;-77
2022/06/21 10:57:24;;;;;;;1.83;0.80;;;22.50;93.80;;;;;;5059882;28;20051;-78
2022/06/21 11:03:30;;;;;;;1.48;0.60;;;21.90;93.30;;;;;;5068585;28;20442;-76
2022/06/21 11:06:14;;;;;;;0.95;0.50;;;22.20;92.90;;;;;;5064832;28;20481;-78
2022/06/21 11:09:35;;;;;;;2.72;0.60;;;22.50;92.60;;;;;;5067604;28;20040;-77
2022/06/21 11:15:38;;;;;;;1.35;0.50;;;22.80;92.90;;;;;;5066721;28;20048;-77
2022/06/21 11:18:55;;;;;;;1.33;0.50;;;22.90;92.90;;;;;;5062292;28;20120;-77
2022/06/21 11:21:38;;;;;;;1.45;0.70;;;22.90;91.70;;;;;;5027283;28;20103;-77
2022/06/21 11:24:34;;;;;;;1.75;0.60;;;23.20;91.90;;;;;;5061191;28;20048;-78
2022/06/21 11:27:20;;;;;;;2.05;0.57;;;22.80;91.10;;;;;;5064017;28;20655;-77
2022/06/21 11:30:07;;;;;;;1.38;0.50;;;22.60;91.40;;;;;;5066686;28;20116;-77
2022/06/21 11:33:17;;;;;;;0.28;0.28;;;22.20;91.80;;;;;;5066695;28;20072;-77
2022/06/21 11:35:59;;;;;;;1.02;0.50;;;21.80;92.50;;;;;;5056247;28;20476;-77
2022/06/21 11:38:44;;;;;;;1.23;0.40;;;21.60;93.10;;;;;;5064309;28;20344;-77
2022/06/21 11:44:32;;;;;;;1.10;0.70;;;21.50;91.80;;;;;;5062910;28;20174;-78
2022/06/21 11:47:09;;;;;;;0.82;0.40;;;21.50;92.00;;;;;;5072151;28;20122;-78
2022/06/21 11:49:36;;;;;;;1.55;0.50;;;22.00;92.30;;;;;;5075276;28;20040;-78
2022/06/21 11:52:20;;;;;;;1.30;0.60;;;22.20;92.40;;;;;;5075684;28;20044;-77
2022/06/21 11:54:59;;;;;;;0.75;0.30;;;22.40;92.40;;;;;;5067093;28;20044;-76
2022/06/21 11:57:33;;;;;;;0.57;0.35;;;22.80;92.60;;;;;;5073740;28;20120;-77
2022/06/21 12:00:15;;;;;;;1.33;0.45;;;23.30;92.70;;;;;;5076497;28;20135;-77
2022/06/21 12:02:56;;;;;;;1.15;0.40;;;23.40;91.20;;;;;;5063104;28;20098;-77
2022/06/21 12:05:46;;;;;;;0.95;0.43;;;23.30;90.20;;;;;;5074749;28;20356;-77
2022/06/21 12:08:29;;;;;;;1.33;0.50;;;23.50;90.90;;;;;;5073568;28;20045;-77
2022/06/21 12:11:13;;;;;;;1.65;0.50;;;23.30;89.40;;;;;;5072624;28;20138;-77
2022/06/21 12:14:17;;;;;;;1.50;0.60;;;23.00;89.20;;;;;;5089014;28;20042;-78
2022/06/21 12:17:09;;;;;;;0.45;0.32;;;23.00;91.30;;;;;;5082954;28;20033;-77
2022/06/21 12:19:38;;;;;;;1.35;0.45;;;23.10;90.90;;;;;;5070443;28;20108;-77
2022/06/21 12:22:13;;;;;;;0.70;0.30;;;23.40;90.50;;;;;;5073958;28;20464;-77
2022/06/21 12:24:39;;;;;;;1.73;0.70;;;23.80;90.90;;;;;;5083850;28;20115;-77
2022/06/21 12:27:10;;;;;;;1.08;0.50;;;23.20;88.80;;;;;;5071274;28;20185;-77
2022/06/21 12:29:37;;;;;;;0.75;0.40;;;23.60;88.60;;;;;;5072525;28;20040;-76
2022/06/21 12:32:07;;;;;;;0.80;0.47;;;23.80;87.70;;;;;;5066618;28;20052;-71
2022/06/21 12:34:48;;;;;;;0.40;0.30;;;24.10;90.10;;;;;;5072913;28;20109;-76
2022/06/21 12:37:26;;;;;;;0.75;0.38;;;24.30;87.40;;;;;;5071799;28;20048;-77
2022/06/21 12:40:06;;;;;;;0.60;0.40;;;24.40;87.00;;;;;;5073928;28;20049;-77
2022/06/21 12:42:56;;;;;;;1.17;0.43;;;24.10;88.20;;;;;;5072559;28;20377;-78
2022/06/21 12:45:44;;;;;;;1.92;0.70;;;24.10;85.00;;;;;;5087917;28;20041;-78
2022/06/21 12:48:42;;;;;;;1.30;0.50;;;23.40;86.80;;;;;;5057407;28;20154;-77
2022/06/21 12:51:15;;;;;;;0.85;0.40;;;23.60;86.20;;;;;;5066258;28;20052;-70
2022/06/21 12:54:02;;;;;;;0.85;0.40;;;24.00;85.00;;;;;;5077318;28;20044;-70
2022/06/21 12:56:31;;;;;;;1.13;0.47;;;23.90;87.10;;;;;;5079807;28;20044;-71
2022/06/21 12:59:51;;;;;;;0.80;0.50;;;24.20;85.70;;;;;;5078058;28;20047;-70
2022/06/21 13:02:45;;;;;;;1.88;0.50;;;24.50;85.30;;;;;;4998278;28;20117;-75
2022/06/21 13:05:53;;;;;;;0.90;0.52;;;24.40;86.20;;;;;;5056630;28;20060;-70
2022/06/21 13:08:56;;;;;;;1.13;0.50;;;24.70;86.50;;;;;;5067821;28;20045;-71
2022/06/21 13:11:53;;;;;;;0.55;0.50;;;24.70;84.20;;;;;;5060536;28;20044;-71
2022/06/21 13:14:57;;;;;;;1.20;0.45;;;24.80;82.80;;;;;;5066667;28;20075;-71
2022/06/21 13:17:53;;;;;;;0.88;0.40;;;25.10;83.90;;;;;;5042694;28;20047;-71
2022/06/21 13:20:42;;;;;;;1.00;0.47;;;25.20;82.00;;;;;;5068753;28;20158;-71
2022/06/21 13:23:26;;;;;;;0.90;0.40;;;25.10;82.00;;;;;;5026690;28;20126;-71
2022/06/21 13:26:13;;;;;;;2.20;1.10;;;25.10;84.50;;;;;;5063869;28;20033;-77
2022/06/21 13:29:01;;;;;;;1.30;0.50;;;24.10;84.00;;;;;;5054285;28;20039;-77
2022/06/21 13:31:49;;;;;;;1.42;0.60;;;24.00;87.20;;;;;;5063389;28;20036;-77
2022/06/21 13:34:38;;;;;;;1.15;0.60;;;23.90;87.10;;;;;;5054373;28;20035;-77
2022/06/21 13:37:31;;;;;;;0.73;0.35;;;23.70;86.10;;;;;;5056177;28;20037;-77
2022/06/21 13:40:20;;;;;;;1.35;0.60;;;23.80;87.70;;;;;;5065471;28;20037;-71
2022/06/21 13:43:05;;;;;;;2.35;0.77;;;23.40;84.00;;;;;;5067911;28;20036;-71
2022/06/21 13:45:53;;;;;;;2.10;0.95;;;23.10;85.20;;;;;;5072866;28;20056;-78
2022/06/21 13:48:23;;;;;;;1.35;0.60;;;22.60;86.40;;;;;;5064007;28;20477;-78
2022/06/21 13:51:21;;;;;;;1.63;0.65;;;22.70;89.70;;;;;;5049905;28;20080;-78
2022/06/21 13:54:03;;;;;;;1.25;0.45;;;22.50;87.80;;;;;;5066594;28;20438;-78
2022/06/21 13:56:40;;;;;;;1.33;0.60;;;22.70;87.70;;;;;;5079632;28;20047;-78
2022/06/21 13:59:12;;;;;;;0.82;0.52;;;22.60;87.20;;;;;;5066421;28;20072;-78
2022/06/21 14:02:10;;;;;;;2.90;1.00;;;22.50;86.20;;;;;;5060576;28;20174;-78
2022/06/21 14:04:56;;;;;;;1.45;0.63;;;22.10;89.10;;;;;;5069891;28;20049;-78
2022/06/21 14:07:42;;;;;;;1.52;0.80;;;22.20;90.20;;;;;;5064642;28;20044;-78
2022/06/21 14:10:29;;;;;;;2.30;1.00;;;22.00;89.90;;;;;;5076969;28;20507;-79
2022/06/21 14:13:29;;;;;;;1.95;0.75;;;21.60;89.60;;;;;;5082178;28;20048;-78
2022/06/21 14:16:16;;;;;;;1.25;0.55;;;21.70;90.10;;;;;;5053070;28;20044;-79